Time;durP1;ratioP1;P1;durP2;ratioP2;P2;SDS_P1;SDS_P2;PMS_P1;PMS_P2;Temp;Humidity;BMP_temperature;BMP_pressure;BME280_temperature;BME280_humidity;BME280_pressure;Samples;Min_cycle;Max_cycle;Signal;HPM_P1;HPM_P2
2021/04/02 00:02:22;;;;;;;9.58;2.42;;;;;;;11.09;74.11;96720.92;1799592;80;21130;-87
2021/04/02 00:04:53;;;;;;;10.68;2.90;;;;;;;11.10;74.13;96719.95;1798978;80;21101;-88
2021/04/02 00:07:29;;;;;;;7.17;2.92;;;;;;;11.08;74.11;96733.78;1642465;87;21300;-88
2021/04/02 00:10:03;;;;;;;8.80;2.90;;;;;;;11.09;74.34;96718.28;1642428;87;21339;-85
2021/04/02 00:12:54;;;;;;;4.53;2.70;;;;;;;11.08;74.52;96696.86;1642083;87;21295;-85
2021/04/02 00:15:59;;;;;;;4.60;2.67;;;;;;;11.06;74.39;96675.88;1604629;88;21218;-86
2021/04/02 00:19:20;;;;;;;5.53;2.65;;;;;;;11.08;74.07;96658.61;1601819;90;21185;-88
2021/04/02 00:22:16;;;;;;;6.17;2.35;;;;;;;10.94;74.17;96638.25;1578445;91;21330;-87
2021/04/02 00:24:57;;;;;;;6.97;2.75;;;;;;;11.02;74.53;96652.08;1615279;82;21265;-87
2021/04/02 00:41:22;;;;;;;8.90;2.52;;;;;;;11.15;75.39;96626.75;1648428;86;21171;-88
2021/04/02 00:44:11;;;;;;;5.25;2.20;;;;;;;11.20;75.17;96629.80;1633589;86;21270;-87
2021/04/02 00:47:47;;;;;;;5.42;2.70;;;;;;;11.25;75.40;96615.72;1608478;87;21167;-85
2021/04/02 00:53:54;;;;;;;4.60;2.77;;;;;;;11.27;75.51;96598.42;1697065;83;20138;-87
2021/04/02 00:57:17;;;;;;;8.45;2.65;;;;;;;11.24;75.46;96594.73;1684087;82;21128;-84
2021/04/02 00:59:59;;;;;;;5.65;2.70;;;;;;;11.24;75.44;96598.69;1630311;86;21158;-87
2021/04/02 01:03:27;;;;;;;5.17;2.77;;;;;;;11.24;75.33;96594.27;1646218;86;21181;-86
2021/04/02 01:06:31;;;;;;;;;;;;;;;11.25;75.63;96588.02;1663514;84;21150;-86
2021/04/02 01:09:43;;;;;;;3.75;2.50;;;;;;;11.23;77.16;96582.04;1578920;86;20186;-86
2021/04/02 01:26:49;;;;;;;4.65;3.42;;;;;;;10.80;77.33;96560.88;1803934;79;24605;-89
2021/04/02 01:29:54;;;;;;;5.92;3.05;;;;;;;10.74;77.26;96558.31;1697470;82;21286;-88
2021/04/02 01:32:58;;;;;;;4.72;3.50;;;;;;;10.71;80.64;96547.21;1722951;83;21291;-86
2021/04/02 01:36:00;;;;;;;5.05;3.20;;;;;;;10.70;80.93;96540.27;1737174;81;21302;-87
2021/04/02 01:38:58;;;;;;;4.87;3.10;;;;;;;10.71;78.84;96533.53;1703771;82;21301;-86
2021/04/02 01:41:57;;;;;;;6.40;3.80;;;;;;;10.77;78.25;96517.66;1738833;83;21252;-87
2021/04/02 01:44:50;;;;;;;8.88;4.20;;;;;;;10.87;77.99;96512.36;1748501;82;21241;-85
2021/04/02 01:47:27;;;;;;;5.03;3.50;;;;;;;10.92;78.05;96501.75;1784357;80;21122;-89
2021/04/02 01:50:36;;;;;;;4.70;3.70;;;;;;;10.97;77.82;96497.88;1738484;83;21166;-88
2021/04/02 01:53:57;;;;;;;7.05;3.50;;;;;;;11.01;77.66;96499.23;1725505;83;21118;-88
2021/04/02 01:56:53;;;;;;;4.67;3.15;;;;;;;11.05;77.81;96496.18;1722802;83;21266;-88
2021/04/02 01:59:48;;;;;;;4.47;2.67;;;;;;;11.18;77.99;96490.60;1690834;85;21239;-86
2021/04/02 02:02:36;;;;;;;4.20;2.98;;;;;;;11.14;77.91;96480.48;1872249;76;24758;-87
2021/04/02 02:05:41;;;;;;;5.78;3.50;;;;;;;11.06;77.56;96479.89;1723592;83;21136;-86
2021/04/02 02:08:53;;;;;;;4.65;3.20;;;;;;;11.12;77.56;96479.81;1772132;81;21116;-85
2021/04/02 02:11:55;;;;;;;5.95;3.90;;;;;;;11.07;77.75;96469.19;1772981;81;21109;-87
2021/04/02 02:14:55;;;;;;;;;;;;;;;11.08;77.58;96460.80;1775495;81;21138;-86
2021/04/02 02:17:58;;;;;;;;;;;;;;;11.13;78.30;96448.01;1773326;81;20115;-87
2021/04/02 02:20:55;;;;;;;5.45;3.80;;;;;;;11.19;78.07;96447.93;1684385;85;20266;-87
2021/04/02 02:23:49;;;;;;;5.35;4.20;;;;;;;11.12;76.94;96447.66;1649151;87;21329;-86
2021/04/02 02:26:36;;;;;;;8.65;4.83;;;;;;;11.07;76.96;96444.13;1627001;88;21364;-89
2021/04/02 02:29:54;;;;;;;7.58;5.22;;;;;;;11.08;77.25;96442.34;1635089;87;21359;-86
2021/04/02 02:33:22;;;;;;;4.72;3.52;;;;;;;11.12;77.93;96423.92;1830706;78;28105;-86
2021/04/02 02:40:00;;;;;;;6.53;3.80;;;;;;;11.03;77.43;96405.00;1764249;81;21122;-85
2021/04/02 02:43:05;;;;;;;6.10;4.37;;;;;;;10.98;77.44;96404.11;1804022;80;21270;-86
2021/04/02 02:46:14;;;;;;;8.60;3.80;;;;;;;10.94;77.59;96412.80;1804827;78;21139;-87
2021/04/02 02:49:21;;;;;;;4.35;3.50;;;;;;;10.96;77.45;96413.96;1804807;80;21128;-88
2021/04/02 02:52:27;;;;;;;9.03;4.53;;;;;;;10.97;77.37;96413.49;1803994;80;21298;-87
2021/04/02 02:55:34;;;;;;;;;;;;;;;11.05;77.73;96418.88;1794943;80;21465;-86
2021/04/02 02:58:39;;;;;;;8.90;4.65;;;;;;;11.06;77.83;96406.05;1788515;80;20408;-85
2021/04/02 03:02:11;;;;;;;6.80;4.10;;;;;;;11.07;77.59;96412.48;1784816;80;21167;-86
2021/04/02 03:05:31;;;;;;;5.00;4.12;;;;;;;11.11;77.89;96414.34;1793461;79;21252;-85
2021/04/02 03:09:11;;;;;;;;;;;;;;;;;;;;;
2021/04/02 03:11:58;;;;;;;4.55;3.60;;;;;;;11.23;78.38;96419.80;1854521;77;24605;-87
2021/04/02 03:15:07;;;;;;;6.65;3.60;;;;;;;11.19;77.86;96421.55;1829858;78;21246;-88
2021/04/02 03:18:27;;;;;;;8.80;4.05;;;;;;;11.19;77.77;96423.69;1829549;78;21111;-86
2021/04/02 03:21:57;;;;;;;6.40;3.65;;;;;;;11.27;78.19;96424.80;1810726;78;21154;-87
2021/04/02 03:25:44;;;;;;;5.80;4.33;;;;;;;11.12;77.77;96416.52;1812892;78;21136;-87
2021/04/02 03:29:15;;;;;;;9.08;5.97;;;;;;;10.96;79.02;96413.96;1802352;78;21123;-86
2021/04/02 03:32:16;;;;;;;8.48;5.97;;;;;;;10.83;79.60;96410.31;1829826;78;21122;-87
2021/04/02 03:35:49;;;;;;;8.33;5.60;;;;;;;10.76;78.97;96395.55;1823161;78;21126;-87
2021/04/02 03:39:05;;;;;;;7.83;6.05;;;;;;;10.76;79.55;96402.63;1829471;78;21165;-87
2021/04/02 03:42:28;;;;;;;11.05;6.80;;;;;;;10.79;78.94;96391.81;1801455;78;21260;-89
2021/04/02 03:45:47;;;;;;;7.35;5.08;;;;;;;10.85;78.85;96403.60;1827677;78;21316;-86
2021/04/02 03:49:17;;;;;;;8.70;7.15;;;;;;;10.86;79.33;96399.50;1814404;77;21249;-87
2021/04/02 03:52:32;;;;;;;10.60;7.15;;;;;;;10.83;79.13;96405.04;1716426;81;21191;-88
2021/04/02 03:56:27;;;;;;;10.98;7.20;;;;;;;10.89;78.88;96399.69;1719281;84;21144;-85
2021/04/02 03:59:42;;;;;;;10.45;7.90;;;;;;;10.92;78.70;96400.73;1690741;85;21180;-88
2021/04/02 04:02:55;;;;;;;10.30;7.97;;;;;;;10.96;78.83;96388.91;1693097;83;21161;-87
2021/04/02 04:06:21;;;;;;;10.72;7.22;;;;;;;11.01;78.61;96397.71;1692838;85;21154;-86
2021/04/02 04:09:38;;;;;;;7.97;6.08;;;;;;;11.11;78.94;96427.53;1861185;77;24880;-87
2021/04/02 04:12:26;;;;;;;11.73;8.00;;;;;;;11.04;79.39;96462.05;1832954;78;21187;-84
2021/04/02 04:15:16;;;;;;;17.55;9.00;;;;;;;10.91;79.93;96463.16;1832482;78;21147;-86
2021/04/02 04:17:51;;;;;;;13.62;8.88;;;;;;;10.62;83.99;96406.53;1822956;78;21366;-84
2021/04/02 04:20:37;;;;;;;15.10;9.25;;;;;;;10.51;83.97;96429.08;1800423;79;21153;-86
2021/04/02 04:23:36;;;;;;;12.40;7.92;;;;;;;10.50;84.25;96399.27;1800159;80;21151;-86
2021/04/02 04:26:11;;;;;;;9.33;7.30;;;;;;;10.41;83.98;96333.75;1775164;79;21250;-84
2021/04/02 04:28:52;;;;;;;8.03;4.90;;;;;;;10.25;83.16;96344.84;1800243;80;21135;-85
2021/04/02 04:31:37;;;;;;;11.30;4.90;;;;;;;10.13;83.46;96367.84;1787795;78;21289;-87
2021/04/02 04:34:41;;;;;;;11.88;8.45;;;;;;;10.00;84.16;96385.72;1679572;85;21233;-86
2021/04/02 04:37:32;;;;;;;11.15;7.45;;;;;;;9.89;83.95;96366.91;1679386;85;21171;-86
2021/04/02 04:51:57;;;;;;;11.30;6.20;;;;;;;9.84;83.70;96346.27;1789125;79;25964;-85
2021/04/02 04:55:00;;;;;;;13.00;7.53;;;;;;;9.77;83.59;96354.37;1752376;82;21284;-82
2021/04/02 04:58:06;;;;;;;15.00;11.12;;;;;;;9.69;84.32;96351.59;1763236;78;21187;-81
2021/04/02 05:00:47;;;;;;;5.85;4.30;;;;;;;9.73;84.10;96349.05;1778380;79;21109;-84
2021/04/02 05:03:22;;;;;;;8.75;5.62;;;;;;;9.80;84.21;96354.57;1815141;79;21238;-82
2021/04/02 05:06:04;;;;;;;10.82;6.70;;;;;;;9.76;84.28;96365.05;1818452;79;21250;-83
2021/04/02 05:09:34;;;;;;;10.63;6.92;;;;;;;9.69;84.25;96357.70;1811798;79;21140;-83
2021/04/02 05:12:05;;;;;;;12.80;8.00;;;;;;;9.71;84.22;96373.34;1797112;80;21235;-80
2021/04/02 05:15:20;;;;;;;19.50;11.60;;;;;;;9.74;83.89;96369.60;1796006;79;21143;-83
2021/04/02 05:18:08;;;;;;;12.25;8.95;;;;;;;9.82;83.90;96365.80;1782123;80;21115;-84
2021/04/02 05:20:52;;;;;;;12.45;7.97;;;;;;;9.93;84.19;96368.31;1797439;79;21251;-84
2021/04/02 05:24:04;;;;;;;10.40;7.70;;;;;;;10.04;83.92;96371.80;1776162;79;21195;-83
2021/04/02 05:26:51;;;;;;;14.30;7.90;;;;;;;10.13;83.71;96373.60;1788208;80;21139;-83
2021/04/02 05:29:55;;;;;;;15.88;9.30;;;;;;;10.24;83.30;96377.42;1801095;80;21093;-83
2021/04/02 05:32:55;;;;;;;12.73;7.60;;;;;;;10.43;83.69;96378.41;1800139;80;21162;-81
2021/04/02 05:36:18;;;;;;;14.30;8.65;;;;;;;10.63;84.23;96385.80;1798309;80;21095;-84
2021/04/02 05:39:28;;;;;;;12.58;8.43;;;;;;;10.74;83.54;96385.66;1800588;79;21132;-80
2021/04/02 05:42:06;;;;;;;18.90;9.23;;;;;;;10.87;83.57;96383.17;1818951;79;21274;-86
2021/04/02 06:06:22;;;;;;;11.65;8.88;;;;;;;12.75;83.93;96384.11;1682092;85;21156;-85
2021/04/02 06:10:00;;;;;;;15.60;9.65;;;;;;;12.96;83.29;96387.71;1676745;85;21198;-86
2021/04/02 06:17:03;;;;;;;13.72;9.53;;;;;;;13.92;82.78;96402.23;1641188;84;21225;-85
2021/04/02 06:49:46;;;;;;;9.37;7.17;;;;;;;13.68;77.45;96405.63;1658455;84;22005;-86
2021/04/02 06:53:35;;;;;;;11.28;9.60;;;;;;;13.58;78.15;96408.41;1655982;85;21701;-84
2021/04/02 07:22:09;;;;;;;13.72;8.33;;;;;;;15.47;77.00;96412.19;1661031;84;21368;-88
2021/04/02 07:50:00;;;;;;;;;;;;;;;;;;;;;
2021/04/02 07:53:00;;;;;;;14.47;10.75;;;;;;;15.70;70.08;96430.05;1702189;82;21246;-87
2021/04/02 07:56:43;;;;;;;14.83;12.10;;;;;;;15.73;69.14;96430.53;1741506;80;21280;-87
2021/04/02 08:00:00;;;;;;;11.53;10.32;;;;;;;15.68;68.15;96431.56;1586108;88;21278;-86
2021/04/02 08:07:03;;;;;;;14.33;11.35;;;;;;;15.91;68.13;96434.80;1527463;92;21205;-88
2021/04/02 08:14:09;;;;;;;14.80;12.07;;;;;;;16.12;66.87;96454.13;1461727;95;21862;-88
2021/04/02 08:35:53;;;;;;;9.00;6.45;;;;;;;15.45;65.03;96438.92;1685600;82;21154;-89
2021/04/02 08:39:57;;;;;;;8.88;5.33;;;;;;;15.47;63.01;96452.02;1662339;83;21307;-89
2021/04/02 08:55:55;;;;;;;8.05;5.50;;;;;;;14.80;65.17;96461.89;1645826;83;21302;-88
2021/04/02 09:06:35;;;;;;;4.25;2.50;;;;;;;16.23;61.07;96443.12;1790625;79;21349;-87
2021/04/02 09:14:00;;;;;;;3.98;2.60;;;;;;;16.13;61.81;96447.82;1684629;82;21151;-85
2021/04/02 09:17:25;;;;;;;4.85;2.30;;;;;;;15.84;61.81;96442.63;1722550;81;21156;-89
2021/04/02 09:40:45;;;;;;;3.70;2.70;;;;;;;16.17;59.58;96449.63;1635249;86;21146;-90
2021/04/02 09:47:49;;;;;;;4.97;3.00;;;;;;;16.36;58.80;96457.16;1581924;85;21231;-87
2021/04/02 09:51:51;;;;;;;7.33;3.87;;;;;;;16.25;59.14;96456.22;1596654;84;21190;-85
2021/04/02 09:55:24;;;;;;;6.55;4.00;;;;;;;16.22;58.60;96456.08;1528673;90;21336;-89
2021/04/02 10:17:02;;;;;;;7.83;4.28;;;;;;;15.32;57.79;96455.05;1424240;98;21227;-88
2021/04/02 10:20:57;;;;;;;7.87;5.10;;;;;;;15.55;58.06;96453.33;1423234;99;21218;-87
2021/04/02 10:24:52;;;;;;;7.33;5.00;;;;;;;15.88;58.37;96444.44;1442168;98;21221;-85
2021/04/02 10:28:17;;;;;;;8.85;5.65;;;;;;;16.26;58.21;96437.12;1476821;96;21318;-90
2021/04/02 10:31:56;;;;;;;8.40;5.47;;;;;;;16.45;57.59;96437.16;1506709;93;21241;-84
2021/04/02 10:35:33;;;;;;;8.18;6.40;;;;;;;16.64;57.42;96442.53;1597143;86;21190;-88
2021/04/02 10:38:29;;;;;;;10.23;7.62;;;;;;;16.84;57.13;96431.71;1561457;90;21175;-84
2021/04/02 10:40:58;;;;;;;12.60;8.30;;;;;;;17.13;55.79;96430.16;1599547;88;21223;-91
2021/04/02 10:44:06;;;;;;;12.98;9.10;;;;;;;17.35;55.85;96431.63;1606729;85;21348;-86
2021/04/02 10:46:37;;;;;;;10.38;6.55;;;;;;;17.54;54.17;96435.56;1596575;86;21276;-88
2021/04/02 10:49:34;;;;;;;8.98;6.50;;;;;;;17.70;54.81;96430.56;1571059;90;21587;-85
2021/04/02 10:52:19;;;;;;;9.25;5.92;;;;;;;17.73;53.85;96428.88;1615020;87;21212;-87
2021/04/02 10:55:20;;;;;;;7.62;5.25;;;;;;;17.60;53.85;96430.02;1578784;89;21360;-87
2021/04/02 10:58:14;;;;;;;7.80;4.62;;;;;;;17.39;53.09;96435.59;1603534;89;21140;-87
2021/04/02 11:00:50;;;;;;;9.30;4.22;;;;;;;17.13;53.89;96438.66;1605917;89;21217;-87
2021/04/02 11:03:57;;;;;;;9.53;4.85;;;;;;;16.75;52.37;96446.09;1553288;89;21315;-83
2021/04/02 11:06:47;;;;;;;5.47;3.45;;;;;;;16.23;54.38;96447.62;1610258;87;21582;-79
2021/04/02 11:09:28;;;;;;;11.08;3.95;;;;;;;15.75;54.96;96444.96;1592540;89;21295;-80
2021/04/02 11:12:13;;;;;;;11.03;3.08;;;;;;;15.53;54.91;96447.86;1580160;89;21161;-83
2021/04/02 11:14:56;;;;;;;7.40;2.85;;;;;;;15.41;55.12;96448.73;1577219;89;21342;-81
2021/04/02 11:17:45;;;;;;;10.70;3.62;;;;;;;15.30;55.25;96448.08;1519407;90;21198;-82
2021/04/02 11:20:18;;;;;;;10.82;3.87;;;;;;;15.33;55.55;96451.41;1528821;94;21687;-84
2021/04/02 11:22:50;;;;;;;7.08;3.65;;;;;;;15.32;55.37;96449.73;1518744;92;21494;-82
2021/04/02 11:25:33;;;;;;;9.10;4.92;;;;;;;15.37;55.70;96442.08;1513825;94;21398;-84
2021/04/02 11:28:06;;;;;;;7.75;4.58;;;;;;;15.46;56.24;96445.89;1519501;92;21313;-80
2021/04/02 11:30:36;;;;;;;8.78;4.67;;;;;;;15.62;56.85;96446.84;1526716;93;21205;-86
2021/04/02 11:33:07;;;;;;;8.15;4.97;;;;;;;15.78;56.87;96437.47;1541892;92;21679;-84
2021/04/02 11:39:11;;;;;;;9.60;5.75;;;;;;;16.08;56.59;96431.58;1620114;88;21194;-88
2021/04/02 11:42:37;;;;;;;12.53;6.08;;;;;;;16.30;56.80;96433.94;1616426;88;21333;-86
2021/04/02 11:45:37;;;;;;;9.08;6.42;;;;;;;16.54;57.15;96423.65;1626028;88;21624;-86
2021/04/02 11:48:14;;;;;;;12.85;5.58;;;;;;;16.70;56.66;96420.53;1624529;88;21320;-84
2021/04/02 11:51:20;;;;;;;8.28;5.70;;;;;;;16.76;56.62;96422.98;1535178;91;21273;-89
2021/04/02 12:21:04;;;;;;;16.70;6.80;;;;;;;13.19;61.39;96485.08;1707937;79;21117;-84
2021/04/02 12:24:23;;;;;;;13.30;6.15;;;;;;;13.05;61.92;96467.94;1716107;83;21200;-83
2021/04/02 12:30:49;;;;;;;16.73;6.78;;;;;;;12.86;63.54;96474.73;1660514;82;21186;-82
2021/04/02 12:33:18;;;;;;;12.63;6.30;;;;;;;12.93;64.30;96474.48;1653033;85;21186;-84
2021/04/02 12:35:46;;;;;;;13.15;7.05;;;;;;;13.11;65.59;96472.64;1619091;86;21193;-84
2021/04/02 12:38:13;;;;;;;15.60;6.70;;;;;;;13.35;66.10;96476.42;1612223;86;21634;-84
2021/04/02 12:40:41;;;;;;;11.85;5.97;;;;;;;13.58;66.64;96476.75;1598993;88;21240;-87
2021/04/02 12:43:22;;;;;;;8.55;5.22;;;;;;;13.88;66.56;96461.81;1824246;77;24517;-85
2021/04/02 12:45:49;;;;;;;14.18;6.78;;;;;;;14.00;67.05;96468.50;1828212;78;21305;-85
2021/04/02 12:48:16;;;;;;;17.20;5.70;;;;;;;14.20;67.33;96462.42;1827928;78;21575;-86
2021/04/02 12:50:44;;;;;;;14.33;5.90;;;;;;;14.43;67.50;96463.14;1809921;78;21132;-84
2021/04/02 12:53:11;;;;;;;15.13;5.58;;;;;;;14.57;67.33;96463.00;1795362;80;21144;-86
2021/04/02 12:55:41;;;;;;;9.95;5.05;;;;;;;14.71;67.08;96456.25;1795556;80;21096;-86
2021/04/02 12:58:09;;;;;;;13.50;6.20;;;;;;;14.77;67.02;96454.25;1795597;80;21155;-83
2021/04/02 13:00:38;;;;;;;11.28;5.78;;;;;;;14.90;66.79;96448.95;1795678;80;21159;-83
2021/04/02 13:03:06;;;;;;;14.55;5.90;;;;;;;15.01;66.47;96457.91;1795751;80;21509;-85
2021/04/02 13:05:34;;;;;;;11.88;5.45;;;;;;;15.01;65.85;96457.07;1795365;80;21116;-86
2021/04/02 13:08:01;;;;;;;9.78;5.08;;;;;;;14.91;65.56;96467.86;1795513;80;21167;-85
2021/04/02 13:10:28;;;;;;;9.78;5.25;;;;;;;14.78;65.84;96475.81;1795447;80;21111;-86
2021/04/02 13:12:56;;;;;;;11.10;5.58;;;;;;;14.59;65.31;96506.59;1795338;80;21170;-85
2021/04/02 13:15:24;;;;;;;16.52;6.00;;;;;;;14.39;64.99;96520.63;1795758;80;21163;-87
2021/04/02 13:17:51;;;;;;;8.75;6.37;;;;;;;14.12;65.56;96522.02;1795483;80;21118;-87
2021/04/02 13:20:24;;;;;;;20.75;7.25;;;;;;;13.78;65.89;96531.33;1795405;80;21151;-84
2021/04/02 13:22:55;;;;;;;11.38;6.62;;;;;;;13.42;66.17;96526.45;1760333;81;21162;-87
2021/04/02 13:25:25;;;;;;;21.55;8.85;;;;;;;13.15;66.10;96525.23;1760815;81;21158;-86
2021/04/02 13:27:53;;;;;;;13.30;7.62;;;;;;;12.83;66.21;96520.02;1740099;82;21166;-84
2021/04/02 13:30:22;;;;;;;16.02;9.18;;;;;;;12.62;67.00;96502.63;1740720;82;21171;-82
2021/04/02 13:32:54;;;;;;;13.72;8.85;;;;;;;12.48;67.45;96502.16;1741201;82;21505;-87
2021/04/02 13:35:25;;;;;;;20.35;8.73;;;;;;;12.42;67.98;96494.83;1741046;82;21202;-81
2021/04/02 13:37:57;;;;;;;18.95;9.35;;;;;;;12.41;68.22;96495.00;1740605;82;21292;-87
2021/04/02 13:40:27;;;;;;;17.52;9.90;;;;;;;12.41;69.28;96491.84;1740271;82;21269;-85
2021/04/02 13:42:55;;;;;;;18.62;9.30;;;;;;;12.41;68.84;96493.17;1733617;82;21152;-85
2021/04/02 13:45:23;;;;;;;15.55;8.53;;;;;;;12.44;68.92;96490.23;1730990;83;21612;-82
2021/04/02 13:47:50;;;;;;;17.95;9.43;;;;;;;12.51;70.20;96485.19;1731276;83;21204;-83
2021/04/02 13:50:25;;;;;;;17.17;9.50;;;;;;;12.56;69.39;96496.63;1731051;82;21136;-86
2021/04/02 13:53:26;;;;;;;14.58;8.93;;;;;;;12.73;69.29;96488.34;1898887;75;25990;-83
2021/04/02 13:55:53;;;;;;;14.05;9.48;;;;;;;12.72;70.04;96483.56;1816999;78;21167;-88
2021/04/02 13:58:20;;;;;;;14.87;8.40;;;;;;;12.77;69.77;96481.27;1778240;80;21163;-84
2021/04/02 14:00:48;;;;;;;13.58;7.37;;;;;;;12.90;69.54;96479.56;1795310;79;21182;-83
2021/04/02 14:03:15;;;;;;;16.10;8.28;;;;;;;13.03;69.65;96468.61;1785507;80;21128;-86
2021/04/02 14:05:43;;;;;;;13.28;8.78;;;;;;;13.19;69.61;96475.81;1795376;78;21154;-82
2021/04/02 14:08:10;;;;;;;15.50;9.00;;;;;;;13.37;69.34;96476.25;1777137;80;21204;-84
2021/04/02 14:10:38;;;;;;;16.20;7.97;;;;;;;13.60;68.96;96472.61;1808023;78;21619;-86
2021/04/02 14:13:09;;;;;;;12.93;8.68;;;;;;;13.80;68.78;96461.78;1780774;80;21167;-89
2021/04/02 14:15:38;;;;;;;12.98;7.50;;;;;;;13.92;68.23;96463.67;1811740;78;21688;-85
2021/04/02 14:18:08;;;;;;;15.45;8.95;;;;;;;14.05;68.04;96466.20;1762964;80;21222;-82
2021/04/02 14:20:41;;;;;;;18.12;10.10;;;;;;;14.16;67.89;96461.58;1774646;80;21175;-83
2021/04/02 14:23:10;;;;;;;17.48;8.60;;;;;;;14.17;67.14;96464.09;1760472;80;21115;-85
2021/04/02 14:25:38;;;;;;;12.85;8.25;;;;;;;14.15;66.96;96468.71;1793009;79;21568;-83
2021/04/02 14:28:07;;;;;;;12.03;8.03;;;;;;;14.11;67.03;96461.24;1769936;80;21558;-83
2021/04/02 14:30:43;;;;;;;10.95;7.92;;;;;;;14.04;66.93;96451.78;1775254;79;21572;-87
2021/04/02 14:33:11;;;;;;;13.13;8.50;;;;;;;13.92;66.68;96459.20;1790840;80;21609;-83
2021/04/02 14:35:40;;;;;;;14.07;9.15;;;;;;;13.87;66.69;96457.53;1805802;78;21274;-85
2021/04/02 14:38:11;;;;;;;11.10;8.33;;;;;;;13.84;66.68;96456.01;1781964;80;21178;-85
2021/04/02 14:40:41;;;;;;;15.10;10.05;;;;;;;13.82;66.84;96458.02;1811101;78;21143;-86
2021/04/02 14:43:09;;;;;;;12.00;9.03;;;;;;;13.82;67.07;96451.86;1771893;80;21174;-85
2021/04/02 14:45:36;;;;;;;17.17;12.10;;;;;;;13.74;67.29;96464.56;1790665;79;21151;-81
2021/04/02 14:48:05;;;;;;;22.17;13.65;;;;;;;13.65;67.85;96465.04;1769569;80;21130;-88
2021/04/02 14:50:36;;;;;;;17.48;11.08;;;;;;;13.48;68.82;96459.33;1807043;79;21217;-83
2021/04/02 14:53:05;;;;;;;17.15;10.38;;;;;;;13.09;69.24;96453.91;1785063;79;21143;-87
2021/04/02 14:55:34;;;;;;;17.87;12.40;;;;;;;12.83;70.65;96460.00;1791048;79;21171;-81
2021/04/02 14:58:03;;;;;;;20.92;11.53;;;;;;;12.66;70.79;96461.70;1775003;79;21221;-87
2021/04/02 15:00:31;;;;;;;18.73;11.57;;;;;;;12.61;71.71;96462.16;1799738;79;21589;-86
2021/04/02 15:02:58;;;;;;;17.48;10.95;;;;;;;12.65;72.61;96459.53;1786348;79;21564;-88
2021/04/02 15:05:26;;;;;;;21.20;12.60;;;;;;;12.75;72.48;96457.30;1793701;80;21167;-82
2021/04/02 15:07:54;;;;;;;21.07;12.95;;;;;;;12.83;72.92;96456.03;1804374;79;21318;-86
2021/04/02 15:10:23;;;;;;;22.52;12.35;;;;;;;12.91;73.02;96454.77;1779262;79;21189;-84
2021/04/02 15:12:51;;;;;;;13.78;10.80;;;;;;;12.97;72.88;96448.05;1773908;79;21242;-85
2021/04/02 15:15:23;;;;;;;16.90;12.73;;;;;;;13.08;73.59;96455.73;1779437;79;21158;-83
2021/04/02 15:17:53;;;;;;;21.73;12.27;;;;;;;13.11;73.35;96455.44;1785792;79;21209;-83
2021/04/02 15:20:22;;;;;;;17.95;10.65;;;;;;;13.18;73.14;96457.45;1797881;79;21171;-82
2021/04/02 15:22:52;;;;;;;18.45;11.63;;;;;;;13.18;72.87;96454.81;1786693;79;21211;-82
2021/04/02 15:25:22;;;;;;;22.30;12.75;;;;;;;13.10;72.30;96452.45;1794241;79;21505;-84
2021/04/02 15:27:49;;;;;;;10.90;6.80;;;;;;;12.95;71.84;96450.85;1778976;79;21170;-81
2021/04/02 15:30:19;;;;;;;19.62;12.75;;;;;;;12.83;71.36;96459.19;1789505;79;21572;-85
2021/04/02 15:32:47;;;;;;;15.13;10.93;;;;;;;12.55;70.18;96454.81;1782876;79;21154;-83
2021/04/02 15:35:17;;;;;;;15.43;9.68;;;;;;;12.44;70.18;96457.67;1796329;79;21170;-86
2021/04/02 15:37:48;;;;;;;24.50;12.88;;;;;;;12.25;70.70;96460.80;1787372;79;21144;-85
2021/04/02 15:40:20;;;;;;;19.57;13.00;;;;;;;12.05;70.72;96456.63;1794244;79;21719;-85
2021/04/02 15:42:49;;;;;;;19.87;12.07;;;;;;;11.63;72.10;96453.46;1776176;79;21191;-83
2021/04/02 15:45:18;;;;;;;23.38;13.68;;;;;;;11.25;73.22;96456.58;1779537;79;21146;-87
2021/04/02 15:47:46;;;;;;;20.02;13.32;;;;;;;11.06;74.49;96457.47;1792193;79;21285;-85
2021/04/02 15:50:16;;;;;;;21.57;15.53;;;;;;;10.86;74.85;96452.22;1789745;79;21132;-87
2021/04/02 15:52:45;;;;;;;18.52;12.93;;;;;;;10.79;76.40;96459.04;1781163;79;21124;-84
2021/04/02 15:55:17;;;;;;;16.37;11.50;;;;;;;10.77;75.40;96465.75;1788490;80;21313;-87
2021/04/02 15:57:53;;;;;;;20.45;13.78;;;;;;;10.78;76.88;96468.73;1773185;80;21302;-92
2021/04/02 16:00:40;;;;;;;22.15;14.25;;;;;;;10.80;75.66;96469.94;1789349;80;21254;-88
2021/04/02 16:03:22;;;;;;;23.65;13.25;;;;;;;10.83;76.09;96469.63;1789320;80;21291;-89
2021/04/02 16:06:00;;;;;;;21.30;15.00;;;;;;;10.89;75.92;96469.56;1793792;79;21285;-80
2021/04/02 16:08:36;;;;;;;21.87;14.03;;;;;;;11.01;76.35;96465.80;1782615;79;21376;-83
2021/04/02 16:11:44;;;;;;;25.50;14.73;;;;;;;11.08;76.18;96466.08;1781149;79;21123;-87
2021/04/02 16:14:21;;;;;;;22.75;14.60;;;;;;;11.18;76.46;96468.18;1784826;79;21274;-86
2021/04/02 16:16:55;;;;;;;22.70;14.85;;;;;;;11.36;76.58;96464.83;1775698;79;21142;-79
2021/04/02 16:19:22;;;;;;;19.52;14.50;;;;;;;11.45;76.58;96465.28;1783480;79;21152;-79
2021/04/02 16:21:49;;;;;;;19.07;14.00;;;;;;;11.49;76.44;96469.28;1778693;79;21566;-79
2021/04/02 16:24:16;;;;;;;21.05;14.00;;;;;;;11.62;76.64;96466.31;1780752;79;21192;-77
2021/04/02 16:26:45;;;;;;;22.98;15.58;;;;;;;11.72;76.48;96474.21;1772119;80;21559;-79
2021/04/02 16:29:13;;;;;;;22.37;13.83;;;;;;;11.81;76.50;96475.13;1751815;80;21131;-81
2021/04/02 16:31:40;;;;;;;21.62;13.88;;;;;;;11.87;76.83;96475.38;1791931;80;21155;-80
2021/04/02 16:34:10;;;;;;;21.57;15.05;;;;;;;11.84;76.92;96468.24;1772069;80;21227;-80
2021/04/02 16:36:39;;;;;;;22.95;15.05;;;;;;;11.83;76.50;96471.36;1755445;80;21593;-78
2021/04/02 16:39:09;;;;;;;20.40;13.72;;;;;;;11.85;76.63;96472.55;1761277;80;21613;-84
2021/04/02 16:41:40;;;;;;;22.62;13.78;;;;;;;11.82;76.62;96474.16;1774956;80;21143;-79
2021/04/02 16:44:09;;;;;;;22.40;13.62;;;;;;;11.79;76.56;96470.00;1779542;80;21132;-80
2021/04/02 16:46:39;;;;;;;19.35;13.28;;;;;;;11.78;76.57;96478.89;1761635;80;21661;-80
2021/04/02 16:49:06;;;;;;;30.52;13.62;;;;;;;11.72;76.50;96472.89;1778177;80;21153;-82
2021/04/02 16:51:35;;;;;;;17.70;10.90;;;;;;;11.64;76.19;96474.11;1742091;80;21196;-81
2021/04/02 16:54:04;;;;;;;15.90;12.15;;;;;;;11.56;76.21;96475.64;1780063;80;21122;-82
2021/04/02 16:56:31;;;;;;;18.52;12.95;;;;;;;11.54;76.26;96478.94;1794794;79;21548;-82
2021/04/02 16:58:59;;;;;;;19.90;14.15;;;;;;;11.52;76.85;96474.75;1772735;80;21116;-80
2021/04/02 17:01:26;;;;;;;19.70;13.32;;;;;;;11.44;76.16;96480.77;1746388;81;21150;-81
2021/04/02 17:03:54;;;;;;;22.85;13.38;;;;;;;11.40;76.66;96480.23;1785314;80;21244;-81
2021/04/02 17:06:21;;;;;;;20.02;14.47;;;;;;;11.37;76.84;96475.70;1775962;80;21170;-83
2021/04/02 17:08:49;;;;;;;27.27;16.35;;;;;;;11.35;76.66;96475.04;1769363;80;21230;-80
2021/04/02 17:11:16;;;;;;;28.62;15.28;;;;;;;11.31;76.91;96471.01;1769079;79;21598;-81
2021/04/02 17:13:44;;;;;;;23.20;13.65;;;;;;;11.23;77.06;96469.92;1773521;80;21127;-81
2021/04/02 17:16:19;;;;;;;19.37;12.98;;;;;;;11.16;76.71;96472.80;1760858;80;21163;-77
2021/04/02 17:18:52;;;;;;;38.58;25.32;;;;;;;11.12;77.59;96471.90;1726320;82;21580;-81
2021/04/02 17:21:19;;;;;;;30.12;16.55;;;;;;;11.08;77.00;96473.48;1748583;80;21123;-80
2021/04/02 17:23:47;;;;;;;27.35;15.65;;;;;;;11.10;77.37;96479.94;1768165;80;21177;-81
2021/04/02 17:26:16;;;;;;;24.75;14.38;;;;;;;11.09;77.18;96474.31;1804036;78;21115;-82
2021/04/02 17:28:43;;;;;;;30.68;17.20;;;;;;;11.04;77.44;96476.05;1805947;79;21163;-80
2021/04/02 17:31:11;;;;;;;24.87;16.42;;;;;;;10.99;77.37;96481.44;1812004;78;21136;-85
2021/04/02 17:33:38;;;;;;;24.85;14.43;;;;;;;10.92;77.20;96485.11;1806113;78;21167;-82
2021/04/02 17:36:06;;;;;;;25.72;14.65;;;;;;;10.85;77.64;96480.88;1800201;78;21190;-80
2021/04/02 17:38:34;;;;;;;21.93;14.40;;;;;;;10.80;77.52;96484.90;1800787;78;21119;-80
2021/04/02 17:41:02;;;;;;;21.52;14.05;;;;;;;10.77;77.41;96486.02;1796515;79;21118;-80
2021/04/02 17:43:30;;;;;;;22.95;13.62;;;;;;;10.81;77.84;96487.89;1768644;79;21573;-80
2021/04/02 17:45:57;;;;;;;18.65;14.63;;;;;;;10.85;77.88;96487.97;1764299;79;21217;-81
2021/04/02 17:48:25;;;;;;;21.97;13.35;;;;;;;10.86;77.87;96490.45;1771078;80;21139;-82